• Join FlightAware (Why Join?)
  • Login
  • US Flag 
09:55AM EDT


 

Airport Tracker/Info


-or-


 

Live Flight TrackerFlight Track Log ✈ UAL5908 ✈ 01-May-2014 ✈ KDIK - KDEN

Flight Track Log - Related Links

Times and Time Zones

All times are in EDT time to prevent confusion due to time zone crossing. See the UAL5908 flight status page for this flight to view local times or setup timezone preferences in your user account.

Time Position Orientation Groundspeed Altitude Reporting Facility
EDT Latitude Longitude Course Direction KTS MPH feet Rate Location/Type
09:43AM 46.7944 -102.8583 186° South 259 298 5,100  Level Minneapolis Center
09:44AM 46.7247 -102.8589 180° South 250 288 7,500 2,220 Climbing Minneapolis Center
09:45AM 46.6883 -102.8349 180° South  Level Estimated
09:45AM 46.6461 -102.8567 179° South 263 303 9,700  Level Minneapolis Center
09:46AM 46.5792 -102.8679 184° South  Level Estimated
09:46AM 46.5564 -102.8569 180° South 293 337 11,600  Level Minneapolis Center
09:47AM 46.4710 -102.8298 166° South  Level FlightAware Approximate
09:47AM 46.4572 -102.8567 180° South 330 380 13,300  Level Minneapolis Center
09:48AM 46.3621 -102.8638 186° South  Level Estimated
09:48AM 46.3486 -102.8578 180° South 368 423 14,600  Level Minneapolis Center
09:49AM 46.2364 -102.8578 180° South 394 453 15,900 1,200 Climbing Minneapolis Center
09:50AM 46.1164 -102.8600 181° South 417 480 17,200 1,380 Climbing Minneapolis Center
09:51AM 45.9711 -102.8617 180° South 428 493 18,800 1,620 Climbing Minneapolis Center
09:52AM 45.8489 -102.8628 180° South 434 499 20,600 1,740 Climbing Minneapolis Center
09:54AM 45.7253 -102.8675 182° South 439 505 22,400 1,740 Climbing Minneapolis Center
09:55AM 45.6044 -102.8819 185° South 439 505 24,200 1,740 Climbing Minneapolis Center
09:56AM 45.4808 -102.8911 183° South 439 505 26,000 1,620 Climbing Minneapolis Center
09:57AM 45.3578 -102.9028 184° South 440 506 27,600 1,500 Climbing Minneapolis Center
09:58AM 45.2353 -102.9108 183° South 440 506 29,100 1,680 Climbing Minneapolis Center
09:59AM 45.0922 -102.9231 183° South 440 506 31,100 1,560 Climbing Minneapolis Center
10:00AM 44.9817 -102.9317 183° South 429 494 32,300 900 Climbing Minneapolis Center
10:01AM 44.8639 -102.9419 184° South 423 487 33,000 300 Climbing Minneapolis Center
10:02AM 44.7392 -102.9592 186° South 432 497 33,000  Level Minneapolis Center
10:03AM 44.6017 -102.9811 186° South 466 536 33,000  Level Minneapolis Center
10:04AM 44.4422 -103.0189 190° South 487 560 33,000  Level Denver Center
10:05AM 44.2889 -103.0381 185° South 492 566 33,000  Level Denver Center
10:06AM 44.1653 -103.0542 185° South 481 554 33,000  Level Denver Center
10:07AM 44.0269 -103.0742 186° South 462 532 33,000  Level Denver Center
10:08AM 43.9103 -103.0933 187° South 450 518 33,000  Level Denver Center
10:09AM 43.7906 -103.1139 187° South 450 518 33,000  Level Denver Center
10:10AM 43.6469 -103.1342 186° South 454 522 33,000  Level Denver Center
10:11AM 43.5208 -103.1525 186° South 464 534 33,000  Level Denver Center
10:12AM 43.3717 -103.1689 185° South 473 544 33,000  Level Denver Center
10:13AM 43.2458 -103.1881 186° South 474 545 33,000  Level Denver Center
10:15AM 42.9744 -103.2275 186° South 473 544 33,000  Level Denver Center
10:16AM 42.8489 -103.2450 186° South 473 544 33,000  Level Denver Center
10:17AM 42.7039 -103.2653 186° South 471 542 33,000  Level Denver Center
10:18AM 42.5803 -103.2819 186° South 466 536 33,000  Level Denver Center
10:19AM 42.4567 -103.2989 186° South 465 535 33,000  Level Denver Center
10:20AM 42.3142 -103.3186 186° South 459 528 33,000  Level Denver Center
10:21AM 42.1931 -103.3344 186° South 458 527 33,000  Level Denver Center
10:22AM 42.0550 -103.2972 169° South 452 520 33,000  Level Denver Center
10:23AM 41.9381 -103.2622 167° South 451 519 33,000  Level Denver Center
10:24AM 41.8028 -103.2217 167° South 449 517 33,000  Level Denver Center
10:26AM 41.6872 -103.1867 167° South 446 513 33,000  Level Denver Center
10:27AM 41.5714 -103.1525 168° South 445 512 33,000  Level Denver Center
10:28AM 41.4383 -103.1933 193° South 444 511 33,000  Level Denver Center
10:29AM 41.3311 -103.2608 205° Southwest 447 514 33,000  Level Denver Center
10:30AM 41.2017 -103.3397 205° Southwest 452 520 33,000  Level Denver Center
10:31AM 41.0925 -103.4186 209° Southwest 465 535 33,000  Level Denver Center
10:32AM 40.9644 -103.5222 211° Southwest 469 540 33,000 -960 Level Denver Center
10:33AM 40.8533 -103.6094 211° Southwest 468 539 31,100 -2,280 Descending Denver Center
10:34AM 40.7461 -103.6950 211° Southwest 455 524 28,400 -2,940 Descending Denver Center
10:35AM 40.6397 -103.7792 211° Southwest 450 518 25,100 -3,300 Descending Denver Center
10:36AM 40.5358 -103.8625 211° Southwest 442 509 21,600 -3,600 Descending Denver Center
10:37AM 40.4247 -103.9533 212° Southwest 418 481 17,700 -2,640 Descending Denver Center
10:38AM 40.3386 -104.0228 212° Southwest 366 421 16,200 -1,620 Descending Denver Center
10:39AM 40.2617 -104.1086 220° Southwest 340 391 14,400 -1,560 Descending Denver Center
10:40AM 40.1722 -104.1222 187° South 336 387 13,000 -720 Descending Denver Center
10:41AM 40.0911 -104.1194 178° South 297 342 13,000 -420 Level Denver Center
10:42AM 40.0064 -104.1167 179° South 287 330 12,200 -1,080 Descending Denver Center
10:43AM 39.9289 -104.1328 189° South 288 331 10,800 -1,080 Descending Denver Center
10:44AM 39.8731 -104.1878 217° Southwest 247 284 10,000 -420 Descending Denver Center
10:45AM 39.8736 -104.2611 271° West 207 238 10,000 -180 Level Denver Center
10:46AM 39.8750 -104.3344 271° West 204 235 9,700 -720 Descending Denver Center
10:47AM 39.8756 -104.4108 271° West 199 229 8,500 -1,080 Descending Denver Center
10:48AM 39.8761 -104.4767 271° West 187 215 7,500 -1,020 Descending Denver Center
10:49AM 39.8767 -104.5467 271° West 183 211 6,400 -900 Descending Denver Center
10:50AM 39.8772 -104.5961 271° West 143 165 5,700 -540 Descending Denver Center
10:51AM 39.8767 -104.6397 269° West 128 147 5,300 -420 Descending Denver Center
10:53AM 39.8617 -104.6732 180° South  Level Estimated
11:00AM 39.8617 -104.6732 North  Level Estimated
11:01AM 39.8617 -104.6732 North  Level Estimated
11:02AM 39.8617 -104.6732 North  Level Estimated